sensor_id;sensor_type;location;lat;lon;timestamp;P1;durP1;ratioP1;P2;durP2;ratioP2
45863;SDS011;31579;52.354;16.974;2023-05-23T00:00:13;10.50;;;5.90;;
45863;SDS011;31579;52.354;16.974;2023-05-23T00:05:13;10.70;;;6.50;;
45863;SDS011;31579;52.354;16.974;2023-05-23T00:10:13;10.70;;;6.50;;
45863;SDS011;31579;52.354;16.974;2023-05-23T00:20:12;9.30;;;5.80;;
45863;SDS011;31579;52.354;16.974;2023-05-23T00:25:08;11.00;;;6.40;;
45863;SDS011;31579;52.354;16.974;2023-05-23T00:30:06;11.00;;;6.40;;
45863;SDS011;31579;52.354;16.974;2023-05-23T00:35:06;11.50;;;6.10;;
45863;SDS011;31579;52.354;16.974;2023-05-23T00:40:11;11.50;;;6.10;;
45863;SDS011;31579;52.354;16.974;2023-05-23T00:45:06;11.60;;;6.50;;
45863;SDS011;31579;52.354;16.974;2023-05-23T00:50:11;11.60;;;6.50;;
45863;SDS011;31579;52.354;16.974;2023-05-23T00:55:06;9.20;;;6.50;;
45863;SDS011;31579;52.354;16.974;2023-05-23T00:58:14;9.20;;;6.50;;
45863;SDS011;31579;52.354;16.974;2023-05-23T01:03:12;11.10;;;6.80;;
45863;SDS011;31579;52.354;16.974;2023-05-23T01:08:12;11.10;;;6.80;;
45863;SDS011;31579;52.354;16.974;2023-05-23T01:13:17;10.80;;;6.90;;
45863;SDS011;31579;52.354;16.974;2023-05-23T01:18:16;10.80;;;6.90;;
45863;SDS011;31579;52.354;16.974;2023-05-23T01:23:17;10.80;;;6.90;;
45863;SDS011;31579;52.354;16.974;2023-05-23T01:32:11;12.80;;;7.60;;
45863;SDS011;31579;52.354;16.974;2023-05-23T01:37:10;12.80;;;7.60;;
45863;SDS011;31579;52.354;16.974;2023-05-23T01:42:10;11.10;;;7.30;;
45863;SDS011;31579;52.354;16.974;2023-05-23T01:47:10;11.10;;;7.30;;
45863;SDS011;31579;52.354;16.974;2023-05-23T01:52:10;13.80;;;7.60;;
45863;SDS011;31579;52.354;16.974;2023-05-23T01:57:13;13.80;;;7.60;;
45863;SDS011;31579;52.354;16.974;2023-05-23T02:02:10;13.90;;;7.80;;
45863;SDS011;31579;52.354;16.974;2023-05-23T02:07:10;13.90;;;7.80;;
45863;SDS011;31579;52.354;16.974;2023-05-23T02:12:10;12.60;;;7.40;;
45863;SDS011;31579;52.354;16.974;2023-05-23T02:17:10;12.60;;;7.40;;
45863;SDS011;31579;52.354;16.974;2023-05-23T02:22:10;12.90;;;7.40;;
45863;SDS011;31579;52.354;16.974;2023-05-23T02:27:10;12.90;;;7.40;;
45863;SDS011;31579;52.354;16.974;2023-05-23T02:32:10;13.30;;;7.70;;
45863;SDS011;31579;52.354;16.974;2023-05-23T02:37:12;13.30;;;7.70;;
45863;SDS011;31579;52.354;16.974;2023-05-23T02:42:10;13.10;;;8.70;;
45863;SDS011;31579;52.354;16.974;2023-05-23T02:43:04;13.10;;;8.70;;
45863;SDS011;31579;52.354;16.974;2023-05-23T02:48:02;13.10;;;8.70;;
45863;SDS011;31579;52.354;16.974;2023-05-23T02:53:02;11.60;;;7.40;;
45863;SDS011;31579;52.354;16.974;2023-05-23T02:58:02;11.60;;;7.40;;
45863;SDS011;31579;52.354;16.974;2023-05-23T03:03:02;15.00;;;7.90;;
45863;SDS011;31579;52.354;16.974;2023-05-23T03:08:02;15.00;;;7.90;;
45863;SDS011;31579;52.354;16.974;2023-05-23T03:13:05;13.40;;;8.40;;
45863;SDS011;31579;52.354;16.974;2023-05-23T03:18:02;13.40;;;8.40;;
45863;SDS011;31579;52.354;16.974;2023-05-23T03:23:02;12.60;;;8.10;;
45863;SDS011;31579;52.354;16.974;2023-05-23T03:28:02;12.60;;;8.10;;
45863;SDS011;31579;52.354;16.974;2023-05-23T03:30:05;12.60;;;8.10;;
45863;SDS011;31579;52.354;16.974;2023-05-23T03:35:03;12.60;;;8.10;;
45863;SDS011;31579;52.354;16.974;2023-05-23T03:40:03;12.60;;;8.10;;
45863;SDS011;31579;52.354;16.974;2023-05-23T03:45:03;13.20;;;8.70;;
45863;SDS011;31579;52.354;16.974;2023-05-23T03:50:03;13.20;;;8.70;;
45863;SDS011;31579;52.354;16.974;2023-05-23T03:55:03;16.00;;;9.30;;
45863;SDS011;31579;52.354;16.974;2023-05-23T04:00:05;16.00;;;9.30;;
45863;SDS011;31579;52.354;16.974;2023-05-23T04:05:03;16.00;;;9.30;;
45863;SDS011;31579;52.354;16.974;2023-05-23T04:10:03;16.00;;;9.30;;
45863;SDS011;31579;52.354;16.974;2023-05-23T04:15:03;13.40;;;8.90;;
45863;SDS011;31579;52.354;16.974;2023-05-23T04:20:05;13.40;;;8.90;;
45863;SDS011;31579;52.354;16.974;2023-05-23T04:25:03;13.60;;;8.70;;
45863;SDS011;31579;52.354;16.974;2023-05-23T04:30:07;13.60;;;8.70;;
45863;SDS011;31579;52.354;16.974;2023-05-23T04:35:03;14.90;;;8.30;;
45863;SDS011;31579;52.354;16.974;2023-05-23T04:40:03;14.90;;;8.30;;
45863;SDS011;31579;52.354;16.974;2023-05-23T04:45:03;18.40;;;9.50;;
45863;SDS011;31579;52.354;16.974;2023-05-23T04:50:03;18.40;;;9.50;;
45863;SDS011;31579;52.354;16.974;2023-05-23T04:55:03;13.80;;;9.20;;
45863;SDS011;31579;52.354;16.974;2023-05-23T05:00:03;13.80;;;9.20;;
45863;SDS011;31579;52.354;16.974;2023-05-23T05:02:06;14.50;;;8.40;;
45863;SDS011;31579;52.354;16.974;2023-05-23T05:07:04;14.50;;;8.40;;
45863;SDS011;31579;52.354;16.974;2023-05-23T05:12:04;12.40;;;8.90;;
45863;SDS011;31579;52.354;16.974;2023-05-23T05:17:04;12.40;;;8.90;;
45863;SDS011;31579;52.354;16.974;2023-05-23T05:22:04;14.50;;;8.40;;
45863;SDS011;31579;52.354;16.974;2023-05-23T05:27:04;14.50;;;8.40;;
45863;SDS011;31579;52.354;16.974;2023-05-23T05:32:08;17.00;;;8.80;;
45863;SDS011;31579;52.354;16.974;2023-05-23T05:37:04;17.00;;;8.80;;
45863;SDS011;31579;52.354;16.974;2023-05-23T05:42:04;15.40;;;8.30;;
45863;SDS011;31579;52.354;16.974;2023-05-23T05:47:04;15.40;;;8.30;;
45863;SDS011;31579;52.354;16.974;2023-05-23T05:56:35;13.20;;;8.00;;
45863;SDS011;31579;52.354;16.974;2023-05-23T06:01:33;12.80;;;7.80;;
45863;SDS011;31579;52.354;16.974;2023-05-23T06:06:33;12.80;;;7.80;;
45863;SDS011;31579;52.354;16.974;2023-05-23T06:11:33;11.80;;;8.00;;
45863;SDS011;31579;52.354;16.974;2023-05-23T06:16:34;11.80;;;8.00;;
45863;SDS011;31579;52.354;16.974;2023-05-23T06:21:33;11.70;;;7.30;;
45863;SDS011;31579;52.354;16.974;2023-05-23T06:26:34;11.70;;;7.30;;
45863;SDS011;31579;52.354;16.974;2023-05-23T06:31:33;12.80;;;7.70;;
45863;SDS011;31579;52.354;16.974;2023-05-23T06:36:33;12.80;;;7.70;;
45863;SDS011;31579;52.354;16.974;2023-05-23T06:41:34;12.40;;;7.90;;
45863;SDS011;31579;52.354;16.974;2023-05-23T06:46:34;12.40;;;7.90;;
45863;SDS011;31579;52.354;16.974;2023-05-23T06:51:33;10.70;;;7.10;;
45863;SDS011;31579;52.354;16.974;2023-05-23T06:59:13;10.70;;;7.10;;
45863;SDS011;31579;52.354;16.974;2023-05-23T07:04:13;15.50;;;7.80;;
45863;SDS011;31579;52.354;16.974;2023-05-23T07:09:13;15.50;;;7.80;;
45863;SDS011;31579;52.354;16.974;2023-05-23T07:14:13;10.80;;;6.40;;
45863;SDS011;31579;52.354;16.974;2023-05-23T07:19:13;10.80;;;6.40;;
45863;SDS011;31579;52.354;16.974;2023-05-23T07:24:13;12.20;;;7.00;;
45863;SDS011;31579;52.354;16.974;2023-05-23T07:29:13;12.20;;;7.00;;
45863;SDS011;31579;52.354;16.974;2023-05-23T07:34:13;13.10;;;6.90;;
45863;SDS011;31579;52.354;16.974;2023-05-23T07:39:16;13.10;;;6.90;;
45863;SDS011;31579;52.354;16.974;2023-05-23T07:44:13;10.30;;;6.80;;
45863;SDS011;31579;52.354;16.974;2023-05-23T07:49:13;10.30;;;6.80;;
45863;SDS011;31579;52.354;16.974;2023-05-23T07:54:13;9.50;;;6.20;;
45863;SDS011;31579;52.354;16.974;2023-05-23T07:59:13;9.50;;;6.20;;
45863;SDS011;31579;52.354;16.974;2023-05-23T08:04:13;12.30;;;6.70;;
45863;SDS011;31579;52.354;16.974;2023-05-23T08:09:13;12.30;;;6.70;;
45863;SDS011;31579;52.354;16.974;2023-05-23T08:15:05;9.90;;;6.20;;
45863;SDS011;31579;52.354;16.974;2023-05-23T08:20:05;9.90;;;6.20;;
45863;SDS011;31579;52.354;16.974;2023-05-23T08:25:05;9.70;;;5.70;;
45863;SDS011;31579;52.354;16.974;2023-05-23T08:30:12;10.70;;;5.40;;
45863;SDS011;31579;52.354;16.974;2023-05-23T08:35:12;10.70;;;5.40;;
45863;SDS011;31579;52.354;16.974;2023-05-23T08:40:14;9.70;;;5.60;;
45863;SDS011;31579;52.354;16.974;2023-05-23T08:45:12;9.70;;;5.60;;
45863;SDS011;31579;52.354;16.974;2023-05-23T08:50:13;8.20;;;4.50;;
45863;SDS011;31579;52.354;16.974;2023-05-23T08:55:16;8.20;;;4.50;;
45863;SDS011;31579;52.354;16.974;2023-05-23T09:00:12;7.60;;;4.60;;
45863;SDS011;31579;52.354;16.974;2023-05-23T09:05:12;7.60;;;4.60;;
45863;SDS011;31579;52.354;16.974;2023-05-23T09:10:15;7.10;;;4.10;;
45863;SDS011;31579;52.354;16.974;2023-05-23T09:15:12;7.10;;;4.10;;
45863;SDS011;31579;52.354;16.974;2023-05-23T09:20:13;5.60;;;3.60;;
45863;SDS011;31579;52.354;16.974;2023-05-23T09:25:12;5.60;;;3.60;;
45863;SDS011;31579;52.354;16.974;2023-05-23T09:30:12;6.70;;;4.20;;
45863;SDS011;31579;52.354;16.974;2023-05-23T09:35:12;6.70;;;4.20;;
45863;SDS011;31579;52.354;16.974;2023-05-23T09:40:12;5.00;;;3.60;;
45863;SDS011;31579;52.354;16.974;2023-05-23T09:47:05;5.00;;;3.60;;
45863;SDS011;31579;52.354;16.974;2023-05-23T09:52:05;7.00;;;4.10;;
45863;SDS011;31579;52.354;16.974;2023-05-23T10:02:07;7.70;;;4.10;;
45863;SDS011;31579;52.354;16.974;2023-05-23T10:07:09;7.70;;;4.10;;
45863;SDS011;31579;52.354;16.974;2023-05-23T10:17:07;5.40;;;3.70;;
45863;SDS011;31579;52.354;16.974;2023-05-23T10:22:05;6.80;;;4.00;;
45863;SDS011;31579;52.354;16.974;2023-05-23T10:27:05;6.80;;;4.00;;
45863;SDS011;31579;52.354;16.974;2023-05-23T10:32:05;6.20;;;3.50;;
45863;SDS011;31579;52.354;16.974;2023-05-23T10:37:06;6.20;;;3.50;;
45863;SDS011;31579;52.354;16.974;2023-05-23T10:42:09;9.00;;;4.20;;
45863;SDS011;31579;52.354;16.974;2023-05-23T10:47:05;9.00;;;4.20;;
45863;SDS011;31579;52.354;16.974;2023-05-23T10:52:05;4.40;;;3.00;;
45863;SDS011;31579;52.354;16.974;2023-05-23T10:57:10;4.40;;;3.00;;
45863;SDS011;31579;52.354;16.974;2023-05-23T11:02:08;6.10;;;3.40;;
45863;SDS011;31579;52.354;16.974;2023-05-23T11:07:05;6.10;;;3.40;;
45863;SDS011;31579;52.354;16.974;2023-05-23T11:12:06;5.70;;;3.50;;
45863;SDS011;31579;52.354;16.974;2023-05-23T11:19:26;5.70;;;3.50;;
45863;SDS011;31579;52.354;16.974;2023-05-23T11:29:26;7.90;;;3.70;;
45863;SDS011;31579;52.354;16.974;2023-05-23T11:34:26;7.80;;;3.90;;
45863;SDS011;31579;52.354;16.974;2023-05-23T11:39:26;7.80;;;3.90;;
45863;SDS011;31579;52.354;16.974;2023-05-23T11:44:29;10.10;;;4.30;;
45863;SDS011;31579;52.354;16.974;2023-05-23T11:49:28;10.10;;;4.30;;
45863;SDS011;31579;52.354;16.974;2023-05-23T11:54:26;8.20;;;4.90;;
45863;SDS011;31579;52.354;16.974;2023-05-23T11:59:26;8.20;;;4.90;;
45863;SDS011;31579;52.354;16.974;2023-05-23T12:04:26;9.50;;;5.40;;
45863;SDS011;31579;52.354;16.974;2023-05-23T12:09:26;9.50;;;5.40;;
45863;SDS011;31579;52.354;16.974;2023-05-23T12:14:27;8.60;;;5.20;;
45863;SDS011;31579;52.354;16.974;2023-05-23T12:19:26;8.60;;;5.20;;
45863;SDS011;31579;52.354;16.974;2023-05-23T12:24:26;8.00;;;5.30;;
45863;SDS011;31579;52.354;16.974;2023-05-23T12:34:26;9.50;;;6.30;;
45863;SDS011;31579;52.354;16.974;2023-05-23T12:39:26;9.50;;;6.30;;
45863;SDS011;31579;52.354;16.974;2023-05-23T12:49:26;8.40;;;6.00;;
45863;SDS011;31579;52.354;16.974;2023-05-23T12:54:26;10.40;;;6.40;;
45863;SDS011;31579;52.354;16.974;2023-05-23T12:59:26;10.40;;;6.40;;
45863;SDS011;31579;52.354;16.974;2023-05-23T13:04:26;10.60;;;7.20;;
45863;SDS011;31579;52.354;16.974;2023-05-23T13:09:26;10.60;;;7.20;;
45863;SDS011;31579;52.354;16.974;2023-05-23T13:14:26;10.00;;;7.10;;
45863;SDS011;31579;52.354;16.974;2023-05-23T13:19:26;10.00;;;7.10;;
45863;SDS011;31579;52.354;16.974;2023-05-23T13:24:26;10.60;;;7.50;;
45863;SDS011;31579;52.354;16.974;2023-05-23T13:33:03;13.50;;;8.30;;
45863;SDS011;31579;52.354;16.974;2023-05-23T13:38:03;13.50;;;8.30;;
45863;SDS011;31579;52.354;16.974;2023-05-23T13:43:03;12.10;;;8.40;;
45863;SDS011;31579;52.354;16.974;2023-05-23T13:48:03;12.10;;;8.40;;
45863;SDS011;31579;52.354;16.974;2023-05-23T13:53:03;12.20;;;8.60;;
45863;SDS011;31579;52.354;16.974;2023-05-23T13:58:07;12.20;;;8.60;;
45863;SDS011;31579;52.354;16.974;2023-05-23T14:03:03;16.40;;;9.60;;
45863;SDS011;31579;52.354;16.974;2023-05-23T14:08:03;16.40;;;9.60;;
45863;SDS011;31579;52.354;16.974;2023-05-23T14:13:05;13.20;;;8.50;;
45863;SDS011;31579;52.354;16.974;2023-05-23T14:18:03;13.20;;;8.50;;
45863;SDS011;31579;52.354;16.974;2023-05-23T14:23:03;12.60;;;9.60;;
45863;SDS011;31579;52.354;16.974;2023-05-23T14:28:03;12.60;;;9.60;;
45863;SDS011;31579;52.354;16.974;2023-05-23T14:33:03;11.80;;;9.00;;
45863;SDS011;31579;52.354;16.974;2023-05-23T14:36:30;11.80;;;9.00;;
45863;SDS011;31579;52.354;16.974;2023-05-23T14:41:28;10.20;;;6.60;;
45863;SDS011;31579;52.354;16.974;2023-05-23T14:46:28;10.20;;;6.60;;
45863;SDS011;31579;52.354;16.974;2023-05-23T14:51:28;12.00;;;7.60;;
45863;SDS011;31579;52.354;16.974;2023-05-23T14:56:28;12.00;;;7.60;;
45863;SDS011;31579;52.354;16.974;2023-05-23T15:01:28;11.50;;;7.10;;
45863;SDS011;31579;52.354;16.974;2023-05-23T15:06:30;11.50;;;7.10;;
45863;SDS011;31579;52.354;16.974;2023-05-23T15:11:28;8.80;;;6.50;;
45863;SDS011;31579;52.354;16.974;2023-05-23T15:16:28;8.80;;;6.50;;
45863;SDS011;31579;52.354;16.974;2023-05-23T15:21:28;8.40;;;6.00;;
45863;SDS011;31579;52.354;16.974;2023-05-23T15:26:28;8.40;;;6.00;;
45863;SDS011;31579;52.354;16.974;2023-05-23T15:31:28;8.20;;;5.90;;
45863;SDS011;31579;52.354;16.974;2023-05-23T15:36:28;8.20;;;5.90;;
45863;SDS011;31579;52.354;16.974;2023-05-23T15:41:28;8.50;;;5.70;;
45863;SDS011;31579;52.354;16.974;2023-05-23T15:46:28;8.50;;;5.70;;
45863;SDS011;31579;52.354;16.974;2023-05-23T15:51:28;10.60;;;6.60;;
45863;SDS011;31579;52.354;16.974;2023-05-23T15:56:28;10.60;;;6.60;;
45863;SDS011;31579;52.354;16.974;2023-05-23T16:01:28;11.30;;;7.70;;
45863;SDS011;31579;52.354;16.974;2023-05-23T16:06:28;11.30;;;7.70;;
45863;SDS011;31579;52.354;16.974;2023-05-23T16:11:28;14.50;;;10.10;;
45863;SDS011;31579;52.354;16.974;2023-05-23T16:16:28;14.50;;;10.10;;
45863;SDS011;31579;52.354;16.974;2023-05-23T16:21:28;15.50;;;9.40;;
45863;SDS011;31579;52.354;16.974;2023-05-23T16:26:32;15.50;;;9.40;;
45863;SDS011;31579;52.354;16.974;2023-05-23T16:31:28;15.10;;;9.90;;
45863;SDS011;31579;52.354;16.974;2023-05-23T16:36:28;15.10;;;9.90;;
45863;SDS011;31579;52.354;16.974;2023-05-23T16:41:28;14.70;;;10.20;;
45863;SDS011;31579;52.354;16.974;2023-05-23T16:46:28;14.70;;;10.20;;
45863;SDS011;31579;52.354;16.974;2023-05-23T16:51:28;17.00;;;11.40;;
45863;SDS011;31579;52.354;16.974;2023-05-23T16:56:28;17.00;;;11.40;;
45863;SDS011;31579;52.354;16.974;2023-05-23T17:01:28;14.70;;;11.70;;
45863;SDS011;31579;52.354;16.974;2023-05-23T17:06:28;14.70;;;11.70;;
45863;SDS011;31579;52.354;16.974;2023-05-23T17:11:28;17.00;;;12.10;;
45863;SDS011;31579;52.354;16.974;2023-05-23T17:16:28;17.00;;;12.10;;
45863;SDS011;31579;52.354;16.974;2023-05-23T17:21:28;17.80;;;11.90;;
45863;SDS011;31579;52.354;16.974;2023-05-23T17:26:28;17.80;;;11.90;;
45863;SDS011;31579;52.354;16.974;2023-05-23T17:31:28;17.90;;;12.70;;
45863;SDS011;31579;52.354;16.974;2023-05-23T17:36:28;17.90;;;12.70;;
45863;SDS011;31579;52.354;16.974;2023-05-23T17:41:28;14.10;;;10.20;;
45863;SDS011;31579;52.354;16.974;2023-05-23T17:46:29;14.10;;;10.20;;
45863;SDS011;31579;52.354;16.974;2023-05-23T17:51:28;13.50;;;9.50;;
45863;SDS011;31579;52.354;16.974;2023-05-23T17:56:28;13.50;;;9.50;;
45863;SDS011;31579;52.354;16.974;2023-05-23T18:01:29;16.50;;;12.50;;
45863;SDS011;31579;52.354;16.974;2023-05-23T18:06:28;16.50;;;12.50;;
45863;SDS011;31579;52.354;16.974;2023-05-23T18:11:13;13.90;;;10.10;;
45863;SDS011;31579;52.354;16.974;2023-05-23T18:16:12;13.90;;;10.10;;
45863;SDS011;31579;52.354;16.974;2023-05-23T18:21:12;14.00;;;9.40;;
45863;SDS011;31579;52.354;16.974;2023-05-23T18:26:12;14.00;;;9.40;;
45863;SDS011;31579;52.354;16.974;2023-05-23T18:31:12;14.10;;;10.50;;
45863;SDS011;31579;52.354;16.974;2023-05-23T18:36:12;14.10;;;10.50;;
45863;SDS011;31579;52.354;16.974;2023-05-23T18:41:14;13.90;;;10.80;;
45863;SDS011;31579;52.354;16.974;2023-05-23T18:46:12;13.90;;;10.80;;
45863;SDS011;31579;52.354;16.974;2023-05-23T18:51:12;14.70;;;10.70;;
45863;SDS011;31579;52.354;16.974;2023-05-23T18:56:12;14.70;;;10.70;;
45863;SDS011;31579;52.354;16.974;2023-05-23T19:01:12;16.10;;;12.50;;
45863;SDS011;31579;52.354;16.974;2023-05-23T19:06:12;16.10;;;12.50;;
45863;SDS011;31579;52.354;16.974;2023-05-23T19:11:12;27.10;;;11.70;;
45863;SDS011;31579;52.354;16.974;2023-05-23T19:16:12;27.10;;;11.70;;
45863;SDS011;31579;52.354;16.974;2023-05-23T19:21:12;12.50;;;9.10;;
45863;SDS011;31579;52.354;16.974;2023-05-23T19:26:05;12.50;;;9.10;;
45863;SDS011;31579;52.354;16.974;2023-05-23T19:31:03;16.00;;;12.70;;
45863;SDS011;31579;52.354;16.974;2023-05-23T19:36:04;16.00;;;12.70;;
45863;SDS011;31579;52.354;16.974;2023-05-23T19:41:04;16.40;;;10.60;;
45863;SDS011;31579;52.354;16.974;2023-05-23T19:46:13;16.40;;;10.60;;
45863;SDS011;31579;52.354;16.974;2023-05-23T19:51:13;14.90;;;10.00;;
45863;SDS011;31579;52.354;16.974;2023-05-23T19:57:09;14.90;;;10.00;;
45863;SDS011;31579;52.354;16.974;2023-05-23T20:02:09;20.90;;;13.60;;
45863;SDS011;31579;52.354;16.974;2023-05-23T20:07:09;20.90;;;13.60;;
45863;SDS011;31579;52.354;16.974;2023-05-23T20:12:16;17.90;;;13.20;;
45863;SDS011;31579;52.354;16.974;2023-05-23T20:17:16;17.90;;;13.20;;
45863;SDS011;31579;52.354;16.974;2023-05-23T20:22:16;20.70;;;15.30;;
45863;SDS011;31579;52.354;16.974;2023-05-23T20:32:16;18.40;;;13.50;;
45863;SDS011;31579;52.354;16.974;2023-05-23T20:37:17;18.40;;;13.50;;
45863;SDS011;31579;52.354;16.974;2023-05-23T20:42:16;17.60;;;13.40;;
45863;SDS011;31579;52.354;16.974;2023-05-23T20:47:17;17.60;;;13.40;;
45863;SDS011;31579;52.354;16.974;2023-05-23T20:52:16;21.30;;;15.30;;
45863;SDS011;31579;52.354;16.974;2023-05-23T20:57:16;21.30;;;15.30;;
45863;SDS011;31579;52.354;16.974;2023-05-23T21:02:16;18.80;;;14.70;;
45863;SDS011;31579;52.354;16.974;2023-05-23T21:07:16;18.80;;;14.70;;
45863;SDS011;31579;52.354;16.974;2023-05-23T21:12:16;20.70;;;15.80;;
45863;SDS011;31579;52.354;16.974;2023-05-23T21:17:16;20.70;;;15.80;;
45863;SDS011;31579;52.354;16.974;2023-05-23T21:22:16;17.90;;;13.90;;
45863;SDS011;31579;52.354;16.974;2023-05-23T21:27:16;17.90;;;13.90;;
45863;SDS011;31579;52.354;16.974;2023-05-23T21:32:16;23.20;;;16.40;;
45863;SDS011;31579;52.354;16.974;2023-05-23T21:37:16;23.20;;;16.40;;
45863;SDS011;31579;52.354;16.974;2023-05-23T21:42:21;25.30;;;18.60;;
45863;SDS011;31579;52.354;16.974;2023-05-23T21:47:16;25.30;;;18.60;;
45863;SDS011;31579;52.354;16.974;2023-05-23T21:52:16;25.10;;;18.00;;
45863;SDS011;31579;52.354;16.974;2023-05-23T21:57:19;25.10;;;18.00;;
45863;SDS011;31579;52.354;16.974;2023-05-23T22:02:16;28.20;;;19.10;;
45863;SDS011;31579;52.354;16.974;2023-05-23T22:07:16;28.20;;;19.10;;
45863;SDS011;31579;52.354;16.974;2023-05-23T22:12:16;22.70;;;16.10;;
45863;SDS011;31579;52.354;16.974;2023-05-23T22:17:16;22.70;;;16.10;;
45863;SDS011;31579;52.354;16.974;2023-05-23T22:22:16;25.90;;;17.90;;
45863;SDS011;31579;52.354;16.974;2023-05-23T22:27:16;25.90;;;17.90;;
45863;SDS011;31579;52.354;16.974;2023-05-23T22:32:16;23.60;;;15.00;;
45863;SDS011;31579;52.354;16.974;2023-05-23T22:37:17;23.60;;;15.00;;
45863;SDS011;31579;52.354;16.974;2023-05-23T22:42:16;22.00;;;15.30;;
45863;SDS011;31579;52.354;16.974;2023-05-23T22:47:16;22.00;;;15.30;;
45863;SDS011;31579;52.354;16.974;2023-05-23T22:52:16;19.40;;;15.20;;
45863;SDS011;31579;52.354;16.974;2023-05-23T22:57:16;19.40;;;15.20;;
45863;SDS011;31579;52.354;16.974;2023-05-23T23:02:21;30.20;;;22.00;;
45863;SDS011;31579;52.354;16.974;2023-05-23T23:07:16;30.20;;;22.00;;
45863;SDS011;31579;52.354;16.974;2023-05-23T23:12:16;41.30;;;33.10;;
45863;SDS011;31579;52.354;16.974;2023-05-23T23:17:18;41.30;;;33.10;;
45863;SDS011;31579;52.354;16.974;2023-05-23T23:22:16;29.10;;;21.20;;
45863;SDS011;31579;52.354;16.974;2023-05-23T23:27:17;29.10;;;21.20;;
45863;SDS011;31579;52.354;16.974;2023-05-23T23:32:16;21.90;;;16.10;;
45863;SDS011;31579;52.354;16.974;2023-05-23T23:37:16;21.90;;;16.10;;
45863;SDS011;31579;52.354;16.974;2023-05-23T23:42:16;22.70;;;17.20;;
45863;SDS011;31579;52.354;16.974;2023-05-23T23:47:16;22.70;;;17.20;;
45863;SDS011;31579;52.354;16.974;2023-05-23T23:52:16;20.10;;;15.00;;
45863;SDS011;31579;52.354;16.974;2023-05-23T23:57:16;20.10;;;15.00;;
